Huvudsida
METAR-TAF:

METAR-TAF

Flygplatser :

Ronneby Airport

Ronneby, Sverige

latitud: 56-16N, longitud: 015-17E, höjd: 58 m

Aktuellt väderrapport

Denna rapport gjordes för 30 minuter sedan, klockan 12:20 UTC
Vind 8 kt från nord
Temperatur 1°C
Fuktighet 86%
Tryck 1028 hPa
Sikt 10 km eller mer
Få moln på en höjd av 1500 ft

METAR: ESDF 121220Z 01008KT 9999 FEW015 01/M01 Q1028

Tid: 13:50 (12:50 UTC)

Väderprognos

Denna rapport gjordes för 1 timme och 20 minuter sedan, klockan 11:30 UTC
Prognos gäller från 12 kl. 12 UTC till 12 kl. 21 UTC
Vind 11 kt från nord/nordost
Sikt 10 km eller mer
Få moln på en höjd av 1300 ft
Brutna moln på en höjd av 2000 ft
Temporärt
från 12 kl. 12 UTC till 12 kl. 21 UTC
Brutna moln på en höjd av 1300 ft

TAF: ESDF 121130Z 1212/1221 02011KT 9999 FEW013 BKN020 TEMPO 1212/1221 BKN013 RMK MIL

Aktuella väderrapporter och prognoser från 4000 flygplatser (METAR- och TAF-rapporter).

De tillgängliga stationerna syns som gula och röda prickar på kartan.

För musen över prickarna för att se namnen på stationerna.

Klicka sedan för att få väderrapporter och prognoser.

För att ändra kartan: Klicka på de gröna knapparna med ett svart kors på för att zooma in; den gröna knappen med ett streck på för att zooma ut; eller på de gröna pilarna för angränsande kartor.


METAR-TAF: